^^
Your Local Weather - Clay, NY Station Historical Data
Daily Summary for July 5, 2017 Units:  English    Metric   Both
« Previous Day
Next Day »
Daily Weekly Monthly Yearly Custom
  High: Low: Average:
Temperature: 82.0 °F 52.0 °F 68.3 °F
Dew Point: 62.7 °F 50.0 °F 56.8 °F
Humidity: 94% 40% 70%
Wind Speed: 4.0mph 0.0mph 0.8mph
Wind Gust: 6.0mph - -
Wind- - ESE
Pressure: 30.18 in 30.03 in -
Precipitation: 0.00 in    
Historical Graphs
 
 
Tabular Data for July 5, 2017
Time Temperature Dew Point Pressure Wind Wind Speed Wind Gust Humidity Rainfall Rate (Hourly) solar
00:04 56.7 °F 52.6 °F 30.13 in Calm     86% 0.00 in 0 W/m2
00:10 56.5 °F 52.4 °F 30.13 in Calm     86% 0.00 in 0 W/m2
00:16 56.4 °F 52.3 °F 30.13 in Calm     86% 0.00 in 0 W/m2
00:22 56.3 °F 52.2 °F 30.13 in Calm     86% 0.00 in 0 W/m2
00:28 56.3 °F 52.5 °F 30.13 in Calm     87% 0.00 in 0 W/m2
00:34 56.2 °F 52.4 °F 30.13 in Calm     87% 0.00 in 0 W/m2
00:40 56.0 °F 52.2 °F 30.13 in Calm     87% 0.00 in 0 W/m2
00:46 55.8 °F 52.0 °F 30.13 in Calm     87% 0.00 in 0 W/m2
00:52 55.7 °F 51.9 °F 30.13 in Calm     87% 0.00 in 0 W/m2
00:58 55.6 °F 52.1 °F 30.13 in Calm     88% 0.00 in 0 W/m2
01:04 55.5 °F 51.7 °F 30.13 in Calm     87% 0.00 in 0 W/m2
01:10 55.3 °F 51.5 °F 30.13 in Calm     87% 0.00 in 0 W/m2
01:16 55.3 °F 51.8 °F 30.12 in Calm     88% 0.00 in 0 W/m2
01:22 55.2 °F 52.0 °F 30.12 in Calm     89% 0.00 in 0 W/m2
01:28 55.2 °F 52.0 °F 30.12 in Calm     89% 0.00 in 0 W/m2
01:34 55.2 °F 52.0 °F 30.12 in Calm     89% 0.00 in 0 W/m2
01:40 55.1 °F 51.9 °F 30.12 in Calm     89% 0.00 in 0 W/m2
01:46 55.0 °F 51.8 °F 30.12 in Calm     89% 0.00 in 0 W/m2
01:52 54.9 °F 52.0 °F 30.12 in Calm     90% 0.00 in 0 W/m2
01:58 54.8 °F 51.9 °F 30.12 in Calm     90% 0.00 in 0 W/m2
02:04 54.6 °F 51.7 °F 30.12 in Calm     90% 0.00 in 0 W/m2
02:10 54.6 °F 51.7 °F 30.12 in Calm     90% 0.00 in 0 W/m2
02:16 54.6 °F 51.7 °F 30.12 in Calm     90% 0.00 in 0 W/m2
02:22 54.5 °F 51.9 °F 30.12 in Calm     91% 0.00 in 0 W/m2
02:28 54.4 °F 51.8 °F 30.12 in Calm     91% 0.00 in 0 W/m2
02:34 54.3 °F 51.7 °F 30.12 in Calm     91% 0.00 in 0 W/m2
02:40 54.1 °F 51.5 °F 30.12 in Calm     91% 0.00 in 0 W/m2
02:46 54.1 °F 51.5 °F 30.12 in Calm     91% 0.00 in 0 W/m2
02:52 54.1 °F 51.5 °F 30.12 in Calm     91% 0.00 in 0 W/m2
02:58 54.0 °F 51.4 °F 30.12 in Calm     91% 0.00 in 0 W/m2
03:04 54.0 °F 51.4 °F 30.12 in Calm     91% 0.00 in 0 W/m2
03:10 53.9 °F 51.6 °F 30.12 in Calm     92% 0.00 in 0 W/m2
03:16 53.9 °F 51.3 °F 30.12 in Calm     91% 0.00 in 0 W/m2
03:22 53.8 °F 51.2 °F 30.12 in Calm     91% 0.00 in 0 W/m2
03:28 53.8 °F 51.5 °F 30.12 in Calm     92% 0.00 in 0 W/m2
03:34 53.7 °F 51.4 °F 30.12 in Calm     92% 0.00 in 0 W/m2
03:40 53.7 °F 51.4 °F 30.12 in Calm     92% 0.00 in 0 W/m2
03:46 53.7 °F 51.4 °F 30.12 in Calm     92% 0.00 in 0 W/m2
03:52 53.7 °F 51.4 °F 30.12 in Calm     92% 0.00 in 0 W/m2
03:58 53.6 °F 51.3 °F 30.12 in Calm     92% 0.00 in 0 W/m2
04:04 53.5 °F 51.2 °F 30.12 in Calm     92% 0.00 in 0 W/m2
04:10 53.4 °F 51.1 °F 30.12 in Calm     92% 0.00 in 0 W/m2
04:16 53.2 °F 50.9 °F 30.12 in Calm     92% 0.00 in 0 W/m2
04:22 53.1 °F 50.8 °F 30.12 in Calm     92% 0.00 in 0 W/m2
04:28 52.9 °F 50.6 °F 30.12 in Calm     92% 0.00 in 0 W/m2
04:34 52.7 °F 50.4 °F 30.13 in Calm     92% 0.00 in 0 W/m2
04:40 52.5 °F 50.2 °F 30.13 in Calm     92% 0.00 in 0 W/m2
04:46 52.4 °F 50.1 °F 30.13 in Calm     92% 0.00 in 0 W/m2
04:52 52.3 °F 50.0 °F 30.13 in Calm     92% 0.00 in 0 W/m2
04:58 52.5 °F 50.5 °F 30.13 in Calm     93% 0.00 in 0 W/m2
05:04 52.5 °F 50.5 °F 30.13 in Calm     93% 0.00 in 0 W/m2
05:10 52.3 °F 50.3 °F 30.13 in Calm     93% 0.00 in 0 W/m2
05:16 52.4 °F 50.4 °F 30.14 in Calm     93% 0.00 in 0 W/m2
05:22 52.4 °F 50.4 °F 30.14 in Calm     93% 0.00 in 0 W/m2
05:28 52.3 °F 50.3 °F 30.14 in Calm     93% 0.00 in 0 W/m2
05:34 52.1 °F 50.1 °F 30.15 in Calm     93% 0.00 in 5 W/m2
05:40 52.0 °F 50.0 °F 30.15 in Calm     93% 0.00 in 5 W/m2
05:46 52.1 °F 50.1 °F 30.15 in Calm     93% 0.00 in 9 W/m2
05:52 52.1 °F 50.1 °F 30.15 in Calm     93% 0.00 in 11 W/m2
05:58 52.0 °F 50.0 °F 30.15 in Calm     93% 0.00 in 12 W/m2
06:04 52.1 °F 50.1 °F 30.15 in Calm     93% 0.00 in 16 W/m2
06:10 52.3 °F 50.3 °F 30.15 in Calm     93% 0.00 in 19 W/m2
06:16 52.4 °F 50.4 °F 30.16 in Calm     93% 0.00 in 21 W/m2
06:22 52.5 °F 50.5 °F 30.16 in Calm     93% 0.00 in 28 W/m2
06:28 52.8 °F 50.8 °F 30.16 in Calm     93% 0.00 in 105 W/m2
06:34 53.8 °F 51.8 °F 30.16 in Calm     93% 0.00 in 121 W/m2
06:40 54.3 °F 52.3 °F 30.16 in Calm     93% 0.00 in 135 W/m2
06:46 55.0 °F 53.3 °F 30.16 in Calm     94% 0.00 in 151 W/m2
06:52 55.5 °F 53.8 °F 30.16 in Calm     94% 0.00 in 167 W/m2
06:58 56.1 °F 54.4 °F 30.16 in Calm     94% 0.00 in 181 W/m2
07:04 56.8 °F 54.8 °F 30.16 in Calm     93% 0.00 in 195 W/m2
07:10 57.9 °F 55.9 °F 30.16 in Calm     93% 0.00 in 211 W/m2
07:16 58.9 °F 56.9 °F 30.17 in Calm     93% 0.00 in 227 W/m2
07:22 60.0 °F 57.4 °F 30.17 in Calm     91% 0.00 in 243 W/m2
07:28 60.7 °F 57.1 °F 30.17 in Calm     88% 0.00 in 260 W/m2
07:34 61.4 °F 57.2 °F 30.17 in Calm     86% 0.00 in 279 W/m2
07:40 62.4 °F 57.2 °F 30.17 in Calm     83% 0.00 in 306 W/m2
07:46 63.3 °F 57.0 °F 30.17 in Calm   1.0 mph 80% 0.00 in 322 W/m2
07:52 63.9 °F 57.6 °F 30.17 in Calm   1.0 mph 80% 0.00 in 338 W/m2
07:58 64.2 °F 57.9 °F 30.17 in Calm   1.0 mph 80% 0.00 in 360 W/m2
08:04 64.1 °F 57.5 °F 30.18 in East 1.0 mph 2.0 mph 79% 0.00 in 374 W/m2
08:10 64.7 °F 58.0 °F 30.18 in ENE 1.0 mph 1.0 mph 79% 0.00 in 392 W/m2
08:16 64.6 °F 57.6 °F 30.18 in SE 1.0 mph 2.0 mph 78% 0.00 in 408 W/m2
08:22 65.0 °F 58.3 °F 30.18 in NNE 1.0 mph 1.0 mph 79% 0.00 in 427 W/m2
08:28 65.7 °F 58.3 °F 30.18 in NNE 1.0 mph 1.0 mph 77% 0.00 in 445 W/m2
08:34 66.3 °F 58.5 °F 30.18 in Calm   1.0 mph 76% 0.00 in 462 W/m2
08:40 66.9 °F 58.7 °F 30.18 in NE 1.0 mph 3.0 mph 75% 0.00 in 478 W/m2
08:46 67.1 °F 58.5 °F 30.18 in NE 2.0 mph 3.0 mph 74% 0.00 in 497 W/m2
08:52 67.5 °F 58.5 °F 30.18 in NE 1.0 mph 1.0 mph 73% 0.00 in 515 W/m2
08:58 68.2 °F 58.8 °F 30.18 in Calm   1.0 mph 72% 0.00 in 533 W/m2
09:04 68.1 °F 58.7 °F 30.18 in Calm   4.0 mph 72% 0.00 in 552 W/m2
09:10 68.8 °F 59.4 °F 30.18 in ENE 1.0 mph 1.0 mph 72% 0.00 in 568 W/m2
09:16 69.7 °F 59.5 °F 30.18 in NE 1.0 mph 2.0 mph 70% 0.00 in 585 W/m2
09:22 70.2 °F 59.6 °F 30.18 in NE 1.0 mph 2.0 mph 69% 0.00 in 601 W/m2
09:28 70.8 °F 60.9 °F 30.18 in NE 1.0 mph 2.0 mph 71% 0.00 in 621 W/m2
09:34 71.2 °F 60.1 °F 30.18 in Calm   1.0 mph 68% 0.00 in 636 W/m2
09:40 71.7 °F 61.4 °F 30.18 in NNE 1.0 mph 3.0 mph 70% 0.00 in 656 W/m2
09:46 72.1 °F 62.2 °F 30.18 in NNE 1.0 mph 3.0 mph 71% 0.00 in 670 W/m2
09:52 72.0 °F 61.3 °F 30.18 in NE 1.0 mph 3.0 mph 69% 0.00 in 691 W/m2
09:58 71.8 °F 59.8 °F 30.18 in ENE 1.0 mph 3.0 mph 66% 0.00 in 708 W/m2
10:04 71.6 °F 59.6 °F 30.18 in ENE 1.0 mph 2.0 mph 66% 0.00 in 722 W/m2
10:10 71.8 °F 60.2 °F 30.18 in NNE 2.0 mph 2.0 mph 67% 0.00 in 737 W/m2
10:16 72.2 °F 60.2 °F 30.17 in NE 1.0 mph 4.0 mph 66% 0.00 in 752 W/m2
10:22 72.3 °F 59.4 °F 30.17 in NNW 2.0 mph 3.0 mph 64% 0.00 in 765 W/m2
10:28 72.6 °F 59.3 °F 30.17 in NE 2.0 mph 3.0 mph 63% 0.00 in 779 W/m2
10:34 72.7 °F 58.9 °F 30.17 in NE 2.0 mph 3.0 mph 62% 0.00 in 789 W/m2
10:40 73.1 °F 58.4 °F 30.16 in East 2.0 mph 2.0 mph 60% 0.00 in 805 W/m2
10:46 73.5 °F 59.2 °F 30.16 in NE 2.0 mph 4.0 mph 61% 0.00 in 817 W/m2
10:52 74.3 °F 60.4 °F 30.16 in NE 2.0 mph 2.0 mph 62% 0.00 in 833 W/m2
10:58 74.2 °F 58.5 °F 30.16 in SSE 2.0 mph 5.0 mph 58% 0.00 in 846 W/m2
11:04 74.0 °F 57.8 °F 30.16 in NNE 3.0 mph 5.0 mph 57% 0.00 in 854 W/m2
11:10 74.3 °F 57.6 °F 30.16 in ENE 2.0 mph 3.0 mph 56% 0.00 in 863 W/m2
11:16 75.1 °F 60.3 °F 30.16 in South 2.0 mph 4.0 mph 60% 0.00 in 874 W/m2
11:22 75.6 °F 58.8 °F 30.15 in ENE 2.0 mph 2.0 mph 56% 0.00 in 881 W/m2
11:28 76.0 °F 58.2 °F 30.15 in ENE 2.0 mph 4.0 mph 54% 0.00 in 889 W/m2
11:34 75.3 °F 59.0 °F 30.15 in North 3.0 mph 5.0 mph 57% 0.00 in 900 W/m2
11:40 76.5 °F 57.6 °F 30.15 in East 3.0 mph 3.0 mph 52% 0.00 in 907 W/m2
11:46 76.3 °F 58.4 °F 30.15 in North 2.0 mph 3.0 mph 54% 0.00 in 912 W/m2
11:52 76.7 °F 61.8 °F 30.15 in ENE 2.0 mph 2.0 mph 60% 0.00 in 921 W/m2
11:58 76.9 °F 59.0 °F 30.14 in ENE 1.0 mph 3.0 mph 54% 0.00 in 925 W/m2
12:04 77.6 °F 58.6 °F 30.14 in NW 1.0 mph 3.0 mph 52% 0.00 in 926 W/m2
12:10 77.8 °F 57.1 °F 30.14 in ENE 2.0 mph 2.0 mph 49% 0.00 in 933 W/m2
12:16 78.1 °F 58.5 °F 30.13 in North 2.0 mph 3.0 mph 51% 0.00 in 937 W/m2
12:22 78.7 °F 57.9 °F 30.13 in NNW 1.0 mph 2.0 mph 49% 0.00 in 942 W/m2
12:28 78.2 °F 58.0 °F 30.13 in North 2.0 mph 2.0 mph 50% 0.00 in 942 W/m2
12:34 78.4 °F 59.9 °F 30.13 in North 2.0 mph 2.0 mph 53% 0.00 in 946 W/m2
12:40 78.5 °F 58.3 °F 30.13 in NNE 1.0 mph 1.0 mph 50% 0.00 in 944 W/m2
12:46 78.8 °F 56.9 °F 30.13 in SSE 1.0 mph 1.0 mph 47% 0.00 in 949 W/m2
12:52 79.2 °F 58.4 °F 30.12 in SSE 2.0 mph 5.0 mph 49% 0.00 in 949 W/m2
12:58 79.0 °F 56.5 °F 30.12 in South 2.0 mph 5.0 mph 46% 0.00 in 947 W/m2
13:04 79.0 °F 58.8 °F 30.12 in SSE 2.0 mph 3.0 mph 50% 0.00 in 949 W/m2
13:10 79.0 °F 55.8 °F 30.11 in South 3.0 mph 6.0 mph 45% 0.00 in 951 W/m2
13:16 79.4 °F 57.4 °F 30.11 in SSE 2.0 mph 6.0 mph 47% 0.00 in 956 W/m2
13:22 79.7 °F 57.1 °F 30.11 in South 1.0 mph 1.0 mph 46% 0.00 in 958 W/m2
13:28 79.7 °F 53.9 °F 30.11 in ESE 1.0 mph 4.0 mph 41% 0.00 in 956 W/m2
13:34 80.9 °F 56.9 °F 30.11 in Calm   3.0 mph 44% 0.00 in 954 W/m2
13:40 80.4 °F 55.9 °F 30.10 in SSE 1.0 mph 4.0 mph 43% 0.00 in 951 W/m2
13:46 79.9 °F 56.0 °F 30.10 in SSE 2.0 mph 6.0 mph 44% 0.00 in 951 W/m2
13:52 80.2 °F 55.0 °F 30.10 in SE 2.0 mph 6.0 mph 42% 0.00 in 947 W/m2
13:58 80.7 °F 54.8 °F 30.10 in NNE 3.0 mph 6.0 mph 41% 0.00 in 958 W/m2
14:04 80.6 °F 55.4 °F 30.10 in SSE 2.0 mph 6.0 mph 42% 0.00 in 937 W/m2
14:10 80.4 °F 55.9 °F 30.10 in SE 3.0 mph 3.0 mph 43% 0.00 in 932 W/m2
14:16 80.3 °F 53.8 °F 30.10 in SE 2.0 mph 3.0 mph 40% 0.00 in 928 W/m2
14:22 80.4 °F 55.2 °F 30.10 in NNW 1.0 mph 2.0 mph 42% 0.00 in 933 W/m2
14:28 81.4 °F 58.0 °F 30.10 in NW 1.0 mph 4.0 mph 45% 0.00 in 939 W/m2
14:34 80.8 °F 56.9 °F 30.09 in North 2.0 mph 4.0 mph 44% 0.00 in 937 W/m2
14:40 80.2 °F 56.9 °F 30.09 in NNE 4.0 mph 4.0 mph 45% 0.00 in 1018 W/m2
14:46 80.7 °F 59.2 °F 30.09 in NE 4.0 mph 5.0 mph 48% 0.00 in 1034 W/m2
14:54 79.9 °F 56.7 °F 30.10 in North 3.0 mph 5.0 mph 45% 0.00 in 330 W/m2
15:00 79.8 °F 57.8 °F 30.09 in NNE 3.0 mph 3.0 mph 47% 0.00 in 951 W/m2
15:06 81.0 °F 57.7 °F 30.09 in ENE 3.0 mph 6.0 mph 45% 0.00 in 912 W/m2
15:12 80.8 °F 59.9 °F 30.09 in NE 2.0 mph 2.0 mph 49% 0.00 in 909 W/m2
15:18 80.8 °F 57.5 °F 30.09 in North 2.0 mph 3.0 mph 45% 0.00 in 914 W/m2
15:24 81.3 °F 60.3 °F 30.08 in NNE 2.0 mph 5.0 mph 49% 0.00 in 884 W/m2
15:30 81.9 °F 58.5 °F 30.08 in NE 2.0 mph 2.0 mph 45% 0.00 in 854 W/m2
15:36 81.1 °F 57.7 °F 30.08 in ENE 3.0 mph 5.0 mph 45% 0.00 in 853 W/m2
15:42 80.9 °F 56.3 °F 30.08 in ENE 4.0 mph 4.0 mph 43% 0.00 in 824 W/m2
15:48 81.4 °F 58.6 °F 30.08 in East 2.0 mph 4.0 mph 46% 0.00 in 782 W/m2
15:54 82.0 °F 60.4 °F 30.08 in East 3.0 mph 4.0 mph 48% 0.00 in 772 W/m2
16:06 81.2 °F 56.6 °F 30.08 in East 2.0 mph 3.0 mph 43% 0.00 in 163 W/m2
16:12 81.2 °F 59.1 °F 30.07 in NNE 2.0 mph 3.0 mph 47% 0.00 in 758 W/m2
16:18 81.7 °F 58.3 °F 30.07 in North 2.0 mph 4.0 mph 45% 0.00 in 364 W/m2
16:24 82.0 °F 58.6 °F 30.07 in NE 3.0 mph 4.0 mph 45% 0.00 in 218 W/m2
16:30 81.7 °F 57.7 °F 30.07 in NE 3.0 mph 3.0 mph 44% 0.00 in 148 W/m2
16:36 81.6 °F 56.9 °F 30.07 in NE 2.0 mph 3.0 mph 43% 0.00 in 580 W/m2
16:42 81.6 °F 56.3 °F 30.07 in NNW 2.0 mph 2.0 mph 42% 0.00 in 111 W/m2
16:48 81.8 °F 57.1 °F 30.07 in North 2.0 mph 4.0 mph 43% 0.00 in 123 W/m2
16:54 81.6 °F 56.9 °F 30.07 in NE 2.0 mph 4.0 mph 43% 0.00 in 84 W/m2
17:00 81.3 °F 56.7 °F 30.06 in NE 1.0 mph 1.0 mph 43% 0.00 in 163 W/m2
17:06 81.2 °F 57.8 °F 30.06 in North 1.0 mph 1.0 mph 45% 0.00 in 77 W/m2
17:12 81.3 °F 57.9 °F 30.06 in East 2.0 mph 2.0 mph 45% 0.00 in 81 W/m2
17:18 81.1 °F 57.7 °F 30.06 in East 2.0 mph 2.0 mph 45% 0.00 in 72 W/m2
17:24 81.0 °F 58.3 °F 30.05 in ENE 2.0 mph 3.0 mph 46% 0.00 in 69 W/m2
17:26 81.0 °F 58.3 °F 30.05 in North 2.0 mph 3.0 mph 46% 0.00 in 70 W/m2
17:32 81.0 °F 60.0 °F 30.05 in NE 3.0 mph 3.0 mph 49% 0.00 in 72 W/m2
17:38 80.9 °F 58.8 °F 30.05 in NE 2.0 mph 3.0 mph 47% 0.00 in 84 W/m2
17:44 80.9 °F 58.8 °F 30.05 in NE 1.0 mph 2.0 mph 47% 0.00 in 63 W/m2
17:50 81.0 °F 58.9 °F 30.05 in ENE 2.0 mph 3.0 mph 47% 0.00 in 60 W/m2
17:56 81.0 °F 58.3 °F 30.04 in NNE 2.0 mph 6.0 mph 46% 0.00 in 60 W/m2
18:02 80.9 °F 59.4 °F 30.04 in North 2.0 mph 2.0 mph 48% 0.00 in 63 W/m2
18:08 80.7 °F 59.2 °F 30.04 in North 2.0 mph 2.0 mph 48% 0.00 in 56 W/m2
18:14 80.4 °F 57.7 °F 30.04 in North 2.0 mph 5.0 mph 46% 0.00 in 65 W/m2
18:20 80.4 °F 58.3 °F 30.04 in North 2.0 mph 2.0 mph 47% 0.00 in 53 W/m2
18:26 80.2 °F 58.7 °F 30.04 in NNE 1.0 mph 4.0 mph 48% 0.00 in 49 W/m2
18:32 79.9 °F 58.5 °F 30.04 in NNE 1.0 mph 1.0 mph 48% 0.00 in 62 W/m2
18:38 79.7 °F 59.4 °F 30.04 in Calm   1.0 mph 50% 0.00 in 51 W/m2
18:44 79.5 °F 59.8 °F 30.04 in Calm     51% 0.00 in 54 W/m2
18:50 79.5 °F 61.4 °F 30.04 in Calm   4.0 mph 54% 0.00 in 44 W/m2
18:56 79.5 °F 60.3 °F 30.04 in North 1.0 mph 4.0 mph 52% 0.00 in 44 W/m2
19:02 79.4 °F 61.3 °F 30.04 in Calm   1.0 mph 54% 0.00 in 42 W/m2
19:08 79.3 °F 61.7 °F 30.04 in Calm   3.0 mph 55% 0.00 in 40 W/m2
19:14 79.1 °F 61.0 °F 30.04 in NE 1.0 mph 2.0 mph 54% 0.00 in 39 W/m2
19:20 79.0 °F 59.9 °F 30.04 in Calm   2.0 mph 52% 0.00 in 30 W/m2
19:26 78.5 °F 62.5 °F 30.04 in Calm   2.0 mph 58% 0.00 in 26 W/m2
19:32 77.5 °F 62.5 °F 30.04 in Calm     60% 0.00 in 25 W/m2
19:38 76.6 °F 61.2 °F 30.04 in Calm     59% 0.00 in 25 W/m2
19:44 76.1 °F 61.7 °F 30.04 in Calm     61% 0.00 in 28 W/m2
19:50 75.7 °F 62.7 °F 30.04 in Calm     64% 0.00 in 35 W/m2
19:56 75.1 °F 62.1 °F 30.04 in Calm     64% 0.00 in 21 W/m2
20:02 74.3 °F 60.9 °F 30.04 in Calm     63% 0.00 in 19 W/m2
20:08 73.9 °F 61.8 °F 30.03 in Calm     66% 0.00 in 21 W/m2
20:14 73.7 °F 62.1 °F 30.03 in Calm     67% 0.00 in 19 W/m2
20:20 73.3 °F 62.1 °F 30.03 in Calm     68% 0.00 in 16 W/m2
20:26 72.9 °F 62.1 °F 30.04 in Calm     69% 0.00 in 14 W/m2
20:32 72.5 °F 61.3 °F 30.03 in Calm     68% 0.00 in 11 W/m2
20:38 72.0 °F 61.3 °F 30.04 in Calm     69% 0.00 in 9 W/m2
20:44 71.6 °F 60.9 °F 30.03 in Calm     69% 0.00 in 5 W/m2
20:50 71.3 °F 61.0 °F 30.03 in Calm     70% 0.00 in 0 W/m2
20:56 70.9 °F 61.0 °F 30.03 in Calm   1.0 mph 71% 0.00 in 0 W/m2
21:02 70.6 °F 60.7 °F 30.03 in Calm     71% 0.00 in 0 W/m2
21:08 70.3 °F 60.8 °F 30.03 in Calm     72% 0.00 in 0 W/m2
21:14 70.2 °F 60.7 °F 30.04 in Calm     72% 0.00 in 0 W/m2
21:20 70.0 °F 60.9 °F 30.04 in Calm     73% 0.00 in 0 W/m2
21:26 69.8 °F 61.5 °F 30.04 in Calm     75% 0.00 in 0 W/m2
21:32 69.6 °F 61.7 °F 30.04 in Calm     76% 0.00 in 0 W/m2
21:38 69.4 °F 61.5 °F 30.04 in Calm     76% 0.00 in 0 W/m2
21:44 69.1 °F 61.6 °F 30.04 in Calm     77% 0.00 in 0 W/m2
21:50 68.9 °F 61.4 °F 30.04 in Calm     77% 0.00 in 0 W/m2
21:56 68.8 °F 61.3 °F 30.04 in Calm     77% 0.00 in 0 W/m2
22:02 68.5 °F 61.0 °F 30.04 in Calm     77% 0.00 in 0 W/m2
22:08 68.4 °F 61.3 °F 30.04 in Calm     78% 0.00 in 0 W/m2
22:14 68.3 °F 60.8 °F 30.04 in Calm     77% 0.00 in 0 W/m2
22:20 68.3 °F 61.2 °F 30.04 in Calm     78% 0.00 in 0 W/m2
22:26 68.1 °F 61.3 °F 30.04 in Calm     79% 0.00 in 0 W/m2
22:32 67.8 °F 61.4 °F 30.04 in Calm     80% 0.00 in 0 W/m2
22:38 67.6 °F 61.2 °F 30.04 in Calm     80% 0.00 in 0 W/m2
22:44 67.5 °F 61.5 °F 30.04 in Calm     81% 0.00 in 0 W/m2
22:50 67.3 °F 60.9 °F 30.04 in Calm     80% 0.00 in 0 W/m2
22:56 67.1 °F 61.1 °F 30.04 in Calm     81% 0.00 in 0 W/m2
23:02 67.0 °F 61.0 °F 30.04 in Calm     81% 0.00 in 0 W/m2
23:08 67.0 °F 61.0 °F 30.04 in Calm     81% 0.00 in 0 W/m2
23:14 66.9 °F 61.2 °F 30.04 in Calm     82% 0.00 in 0 W/m2
23:20 66.9 °F 61.2 °F 30.04 in Calm     82% 0.00 in 0 W/m2
23:26 66.8 °F 61.1 °F 30.04 in Calm     82% 0.00 in 0 W/m2
23:32 66.8 °F 61.1 °F 30.03 in Calm     82% 0.00 in 0 W/m2
23:38 66.6 °F 60.6 °F 30.04 in Calm     81% 0.00 in 0 W/m2
23:44 66.5 °F 60.8 °F 30.04 in Calm     82% 0.00 in 0 W/m2
23:50 66.4 °F 60.7 °F 30.04 in Calm     82% 0.00 in 0 W/m2
23:56 66.3 °F 60.6 °F 30.03 in Calm     82% 0.00 in 0 W/m2
Country Meadow, Clay, NY, USA
Compliments of Weather Underground - 2 mb